createdAt,value
2019-06-07T00:01:29.640Z,16.83
2019-06-07T00:03:56.449Z,16.87
2019-06-07T00:06:25.368Z,16.76
2019-06-07T00:08:52.197Z,16.74
2019-06-07T00:11:20.690Z,16.73
2019-06-07T00:13:47.638Z,16.77
2019-06-07T00:16:19.105Z,16.72
2019-06-07T00:18:43.280Z,16.67
2019-06-07T00:21:10.090Z,16.67
2019-06-07T00:23:36.905Z,16.55
2019-06-07T00:26:03.841Z,16.54
2019-06-07T00:28:30.549Z,16.56
2019-06-07T00:30:57.392Z,16.53
2019-06-07T00:33:25.101Z,16.52
2019-06-07T00:35:52.111Z,16.53
2019-06-07T00:38:21.751Z,16.50
2019-06-07T00:40:48.132Z,16.39
2019-06-07T00:43:17.611Z,16.40
2019-06-07T00:45:43.474Z,16.31
2019-06-07T00:48:16.192Z,16.31
2019-06-07T00:50:39.257Z,16.32
2019-06-07T00:53:17.544Z,16.17
2019-06-07T00:55:34.848Z,16.17
2019-06-07T00:58:07.717Z,16.08
2019-06-07T01:00:34.512Z,16.03
2019-06-07T01:03:01.343Z,16.00
2019-06-07T01:05:31.425Z,15.91
2019-06-07T01:07:56.995Z,15.88
2019-06-07T01:10:51.788Z,15.88
2019-06-07T01:12:52.516Z,15.85
2019-06-07T01:15:27.599Z,15.81
2019-06-07T01:18:33.224Z,15.75
2019-06-07T01:20:23.822Z,15.73
2019-06-07T01:22:48.652Z,15.72
2019-06-07T01:25:15.818Z,15.61
2019-06-07T01:27:42.734Z,15.61
2019-06-07T01:30:10.408Z,15.54
2019-06-07T01:32:37.354Z,15.50
2019-06-07T01:35:04.785Z,15.47
2019-06-07T01:37:31.516Z,15.43
2019-06-07T01:39:58.224Z,15.40
2019-06-07T01:42:28.880Z,15.31
2019-06-07T01:44:58.858Z,15.25
2019-06-07T01:47:31.236Z,15.19
2019-06-07T01:49:54.280Z,15.12
2019-06-07T01:52:23.538Z,15.10
2019-06-07T01:54:58.030Z,15.05
2019-06-07T01:57:36.579Z,14.97
2019-06-07T01:59:47.246Z,14.92
2019-06-07T02:02:14.133Z,14.89
2019-06-07T02:04:40.890Z,14.87
2019-06-07T02:07:07.605Z,14.85
2019-06-07T02:09:34.429Z,14.88
2019-06-07T02:12:01.371Z,14.89
2019-06-07T02:14:30.618Z,14.87
2019-06-07T02:16:56.956Z,14.82
2019-06-07T02:19:24.277Z,14.81
2019-06-07T02:21:51.116Z,14.86
2019-06-07T02:24:24.487Z,14.84
2019-06-07T02:26:47.922Z,14.81
2019-06-07T02:29:14.826Z,14.76
2019-06-07T02:31:42.700Z,14.72
2019-06-07T02:34:09.509Z,14.71
2019-06-07T02:36:41.346Z,14.68
2019-06-07T02:39:05.860Z,14.60
2019-06-07T02:41:38.549Z,14.58
2019-06-07T02:44:01.626Z,14.60
2019-06-07T02:46:36.196Z,14.61
2019-06-07T02:48:57.065Z,14.57
2019-06-07T02:51:27.290Z,14.52
2019-06-07T02:53:52.566Z,14.49
2019-06-07T02:56:48.605Z,14.49
2019-06-07T02:58:48.455Z,14.47
2019-06-07T03:01:15.761Z,14.46
2019-06-07T03:03:42.683Z,14.46
2019-06-07T03:06:12.546Z,14.37
2019-06-07T03:08:39.652Z,14.37
2019-06-07T03:11:06.755Z,14.36
2019-06-07T03:13:37.172Z,14.31
2019-06-07T03:16:03.924Z,14.26
2019-06-07T03:19:05.280Z,14.22
2019-06-07T03:21:36.362Z,14.23
2019-06-07T03:24:03.493Z,14.20
2019-06-07T03:26:34.908Z,14.17
2019-06-07T03:29:00.218Z,14.15
2019-06-07T03:31:31.310Z,14.14
2019-06-07T03:33:56.217Z,14.01
2019-06-07T03:36:25.741Z,14.16
2019-06-07T03:38:51.834Z,14.17
2019-06-07T03:41:18.665Z,14.21
2019-06-07T03:43:45.461Z,14.25
2019-06-07T03:46:12.362Z,14.27
2019-06-07T03:48:41.386Z,14.26
2019-06-07T03:51:24.252Z,14.31
2019-06-07T03:53:37.358Z,14.32
2019-06-07T03:56:05.379Z,14.34
2019-06-07T03:58:37.893Z,14.37
2019-06-07T04:01:04.951Z,14.43
2019-06-07T04:03:42.104Z,14.44
2019-06-07T04:06:00.484Z,14.42
2019-06-07T04:08:28.271Z,14.45
2019-06-07T04:11:00.282Z,14.48
2019-06-07T04:13:24.076Z,14.53
2019-06-07T04:15:51.186Z,14.56
2019-06-07T04:18:18.639Z,14.62
2019-06-07T04:20:45.454Z,14.64
2019-06-07T04:23:27.902Z,14.68
2019-06-07T04:25:42.636Z,14.68
2019-06-07T04:28:09.683Z,14.68
2019-06-07T04:30:42.009Z,14.64
2019-06-07T04:33:09.678Z,14.60
2019-06-07T04:35:40.042Z,14.57
2019-06-07T04:38:06.579Z,14.56
2019-06-07T04:40:35.847Z,14.57
2019-06-07T04:43:02.826Z,14.57
2019-06-07T04:45:37.360Z,14.57
2019-06-07T04:47:59.173Z,14.58
2019-06-07T04:50:27.234Z,14.63
2019-06-07T04:52:54.027Z,14.65
2019-06-07T04:55:29.055Z,14.71
2019-06-07T04:57:56.476Z,14.70
2019-06-07T05:00:49.781Z,14.71
2019-06-07T05:03:00.594Z,14.73
2019-06-07T05:05:29.301Z,14.77
2019-06-07T05:07:56.311Z,14.80
2019-06-07T05:10:23.128Z,14.88
2019-06-07T05:12:49.823Z,14.89
2019-06-07T05:15:16.670Z,14.95
2019-06-07T05:17:45.223Z,14.96
2019-06-07T05:20:12.105Z,14.98
2019-06-07T05:22:44.391Z,15.06
2019-06-07T05:25:07.976Z,15.10
2019-06-07T05:27:36.457Z,15.03
2019-06-07T05:30:13.634Z,15.09
2019-06-07T05:32:34.277Z,15.15
2019-06-07T05:35:01.327Z,15.09
2019-06-07T05:37:38.045Z,15.09
2019-06-07T05:40:05.666Z,15.15
2019-06-07T05:42:34.570Z,15.21
2019-06-07T05:45:01.452Z,15.28
2019-06-07T05:47:28.304Z,15.29
2019-06-07T05:49:55.342Z,15.35
2019-06-07T05:52:23.490Z,15.39
2019-06-07T05:54:51.379Z,15.47
2019-06-07T05:57:23.966Z,15.46
2019-06-07T05:59:50.898Z,15.58
2019-06-07T06:02:23.160Z,15.63
2019-06-07T06:04:50.719Z,15.56
2019-06-07T06:07:34.761Z,15.61
2019-06-07T06:10:03.183Z,15.63
2019-06-07T06:12:35.467Z,15.66
2019-06-07T06:14:58.669Z,15.69
2019-06-07T06:17:36.865Z,15.69
2019-06-07T06:20:07.917Z,15.71
2019-06-07T06:22:41.710Z,15.73
2019-06-07T06:25:31.557Z,15.73
2019-06-07T06:28:05.900Z,15.75
2019-06-07T06:30:08.844Z,15.80
2019-06-07T06:32:54.379Z,15.85
2019-06-07T06:35:05.465Z,15.89
2019-06-07T06:37:32.290Z,15.95
2019-06-07T06:39:59.146Z,16.03
2019-06-07T06:42:26.093Z,16.10
2019-06-07T06:44:54.242Z,16.17
2019-06-07T06:47:21.527Z,16.22
2019-06-07T06:49:50.021Z,16.31
2019-06-07T06:52:17.119Z,16.37
2019-06-07T06:54:59.228Z,16.42
2019-06-07T06:57:26.376Z,16.49
2019-06-07T06:59:55.674Z,16.55
2019-06-07T07:02:23.883Z,16.61
2019-06-07T07:04:54.175Z,16.65
2019-06-07T07:07:23.193Z,16.70
2019-06-07T07:09:54.958Z,16.74
2019-06-07T07:12:19.257Z,16.76
2019-06-07T07:14:49.172Z,16.83
2019-06-07T07:17:14.722Z,16.89
2019-06-07T07:19:42.567Z,17.01
2019-06-07T07:22:10.391Z,17.09
2019-06-07T07:24:37.094Z,17.17
2019-06-07T07:27:03.947Z,17.22
2019-06-07T07:29:31.008Z,17.28
2019-06-07T07:31:57.836Z,17.34
2019-06-07T07:34:34.689Z,17.39
2019-06-07T07:36:59.229Z,17.47
2019-06-07T07:39:22.318Z,17.52
2019-06-07T07:42:15.323Z,17.62
2019-06-07T07:44:17.856Z,17.68
2019-06-07T07:46:46.511Z,17.74
2019-06-07T07:49:13.440Z,17.82
2019-06-07T07:51:40.219Z,17.88
2019-06-07T07:54:10.616Z,17.94
2019-06-07T07:56:35.772Z,18.01
2019-06-07T07:59:03.053Z,18.06
2019-06-07T08:01:29.893Z,18.10
2019-06-07T08:03:57.397Z,18.16
2019-06-07T08:06:25.576Z,18.19
2019-06-07T08:08:54.475Z,18.23
2019-06-07T08:11:21.104Z,18.28
2019-06-07T08:13:48.127Z,18.35
2019-06-07T08:16:18.535Z,18.40
2019-06-07T08:18:43.659Z,18.46
2019-06-07T08:21:24.355Z,18.52
2019-06-07T08:23:39.323Z,18.57
2019-06-07T08:26:07.343Z,18.71
2019-06-07T08:28:34.270Z,18.72
2019-06-07T08:31:07.044Z,18.76
2019-06-07T08:33:30.136Z,18.86
2019-06-07T08:36:10.529Z,18.94
2019-06-07T08:38:29.741Z,19.02
2019-06-07T08:40:59.135Z,19.06
2019-06-07T08:43:23.035Z,19.11
2019-06-07T08:45:51.272Z,19.19
2019-06-07T08:48:27.907Z,19.29
2019-06-07T08:50:47.561Z,19.35
2019-06-07T08:53:14.382Z,19.41
2019-06-07T08:55:41.832Z,19.43
2019-06-07T08:58:09.123Z,19.47
2019-06-07T09:00:47.091Z,19.54
2019-06-07T09:03:07.167Z,19.62
2019-06-07T09:05:33.524Z,19.65
2019-06-07T09:08:23.663Z,19.65
2019-06-07T09:10:30.110Z,19.77
2019-06-07T09:13:03.875Z,19.80
2019-06-07T09:15:27.016Z,19.91
2019-06-07T09:18:40.144Z,19.97
2019-06-07T09:20:36.664Z,20.03
2019-06-07T09:22:59.098Z,20.12
2019-06-07T09:25:24.806Z,20.19
2019-06-07T09:27:51.595Z,20.29
2019-06-07T09:30:44.292Z,20.36
2019-06-07T09:33:11.846Z,20.35
2019-06-07T09:35:38.713Z,20.55
2019-06-07T09:38:18.141Z,20.57
2019-06-07T09:40:35.085Z,20.64
2019-06-07T09:43:47.411Z,20.77
2019-06-07T09:45:30.657Z,20.87
2019-06-07T09:47:59.467Z,20.92
2019-06-07T09:50:26.245Z,21.02
2019-06-07T09:52:58.703Z,21.07
2019-06-07T09:55:24.897Z,21.16
2019-06-07T09:57:50.347Z,21.30
2019-06-07T10:02:46.220Z,21.45
2019-06-07T10:05:14.333Z,21.50
2019-06-07T10:08:00.020Z,21.71
2019-06-07T10:12:39.201Z,21.87
2019-06-07T10:15:07.031Z,21.90
2019-06-07T10:17:33.809Z,22.05
2019-06-07T10:20:02.604Z,22.15
2019-06-07T10:22:29.210Z,22.11
2019-06-07T10:24:56.033Z,22.18
2019-06-07T10:27:22.776Z,22.28
2019-06-07T10:29:49.558Z,22.36
2019-06-07T10:32:16.402Z,22.33
2019-06-07T10:34:43.310Z,22.43
2019-06-07T10:37:15.016Z,22.44
2019-06-07T10:39:48.204Z,22.46
2019-06-07T10:42:08.255Z,22.56
2019-06-07T10:44:36.172Z,22.60
2019-06-07T10:47:04.000Z,22.69
2019-06-07T10:49:31.083Z,22.77
2019-06-07T10:52:02.946Z,22.78
2019-06-07T10:54:30.824Z,22.82
2019-06-07T10:56:57.401Z,22.94
2019-06-07T10:59:24.187Z,22.94
2019-06-07T11:01:51.065Z,22.98
2019-06-07T11:04:17.786Z,23.06
2019-06-07T11:06:44.733Z,23.06
2019-06-07T11:09:12.054Z,23.13
2019-06-07T11:11:39.115Z,23.27
2019-06-07T11:14:06.427Z,23.30
2019-06-07T11:16:33.211Z,23.28
2019-06-07T11:19:00.138Z,23.28
2019-06-07T11:21:26.978Z,23.28
2019-06-07T11:23:53.783Z,23.24
2019-06-07T11:26:20.592Z,23.25
2019-06-07T11:28:47.475Z,23.18
2019-06-07T11:31:15.132Z,23.28
2019-06-07T11:33:42.249Z,23.25
2019-06-07T11:36:08.962Z,23.28
2019-06-07T11:38:35.756Z,23.48
2019-06-07T11:41:02.590Z,23.50
2019-06-07T11:43:29.294Z,23.62
2019-06-07T11:45:56.122Z,23.66
2019-06-07T11:48:23.010Z,23.79
2019-06-07T11:50:49.947Z,23.77
2019-06-07T11:53:16.634Z,23.91
2019-06-07T11:55:43.540Z,23.86
2019-06-07T11:58:14.353Z,23.86
2019-06-07T12:00:40.119Z,23.98
2019-06-07T12:03:11.576Z,24.01
2019-06-07T12:05:38.501Z,24.04
2019-06-07T12:08:06.397Z,24.04
2019-06-07T12:10:42.148Z,24.12
2019-06-07T12:13:01.916Z,24.13
2019-06-07T12:15:28.846Z,24.35
2019-06-07T12:18:00.770Z,24.31
2019-06-07T12:20:28.679Z,24.40
2019-06-07T12:22:55.509Z,24.50
2019-06-07T12:25:25.150Z,24.47
2019-06-07T12:27:52.198Z,24.56
2019-06-07T12:30:26.266Z,24.70
2019-06-07T12:32:48.054Z,24.84
2019-06-07T12:35:15.654Z,24.91
2019-06-07T12:37:44.732Z,24.94
2019-06-07T12:40:15.751Z,25.12
2019-06-07T12:42:40.185Z,25.17
2019-06-07T12:45:07.344Z,25.25
2019-06-07T12:47:34.158Z,25.26
2019-06-07T12:50:01.151Z,25.34
2019-06-07T12:52:27.859Z,25.31
2019-06-07T12:54:54.677Z,25.28
2019-06-07T12:57:22.111Z,25.41
2019-06-07T12:59:49.480Z,25.47
2019-06-07T13:02:16.434Z,25.40
2019-06-07T13:04:44.227Z,25.53
2019-06-07T13:07:11.037Z,25.58
2019-06-07T13:09:37.729Z,25.74
2019-06-07T13:12:04.619Z,25.80
2019-06-07T13:14:31.456Z,25.86
2019-06-07T13:16:58.325Z,25.94
2019-06-07T13:19:25.134Z,25.99
2019-06-07T13:21:52.001Z,26.08
2019-06-07T13:24:19.399Z,26.13
2019-06-07T13:26:47.606Z,26.14
2019-06-07T13:29:14.410Z,26.13
2019-06-07T13:31:41.574Z,26.17
2019-06-07T13:34:08.358Z,26.36
2019-06-07T13:36:35.310Z,26.44
2019-06-07T13:39:02.134Z,26.47
2019-06-07T13:41:40.546Z,26.58
2019-06-07T13:43:57.626Z,26.59
2019-06-07T13:46:25.272Z,26.66
2019-06-07T13:48:52.514Z,26.67
2019-06-07T13:51:22.511Z,26.80
2019-06-07T13:53:48.068Z,26.98
2019-06-07T13:56:21.790Z,27.09
2019-06-07T13:58:48.814Z,27.20
2019-06-07T14:01:16.042Z,27.22
2019-06-07T14:03:42.868Z,27.21
2019-06-07T14:06:09.842Z,27.35
2019-06-07T14:08:36.958Z,27.38
2019-06-07T14:11:03.966Z,27.44
2019-06-07T14:13:30.814Z,27.52
2019-06-07T14:15:57.785Z,27.57
2019-06-07T14:18:24.647Z,27.67
2019-06-07T14:20:51.675Z,27.72
2019-06-07T14:23:18.528Z,27.85
2019-06-07T14:25:45.389Z,27.88
2019-06-07T14:28:13.481Z,27.90
2019-06-07T14:30:40.309Z,28.00
2019-06-07T14:33:07.094Z,27.98
2019-06-07T14:35:33.831Z,28.13
2019-06-07T14:38:00.518Z,28.13
2019-06-07T14:40:27.968Z,28.14
2019-06-07T14:42:54.832Z,28.10
2019-06-07T14:45:21.868Z,28.10
2019-06-07T14:47:48.822Z,28.12
2019-06-07T14:50:16.688Z,28.15
2019-06-07T14:52:43.519Z,28.11
2019-06-07T14:55:10.407Z,28.23
2019-06-07T14:57:38.549Z,28.23
2019-06-07T15:00:11.322Z,28.33
2019-06-07T15:02:42.753Z,28.40
2019-06-07T15:05:09.840Z,28.45
2019-06-07T15:07:36.881Z,28.43
2019-06-07T15:10:04.375Z,28.43
2019-06-07T15:12:31.219Z,28.47
2019-06-07T15:14:58.534Z,28.49
2019-06-07T15:17:26.462Z,28.51
2019-06-07T15:19:53.383Z,28.49
2019-06-07T15:22:20.276Z,28.48
2019-06-07T15:24:47.067Z,28.47
2019-06-07T15:27:15.833Z,28.47
2019-06-07T15:29:42.870Z,28.50
2019-06-07T15:32:10.156Z,28.50
2019-06-07T15:34:38.391Z,28.47
2019-06-07T15:37:07.779Z,28.42
2019-06-07T15:39:34.736Z,28.42
2019-06-07T15:42:01.632Z,28.35
2019-06-07T15:44:31.327Z,28.31
2019-06-07T15:46:58.180Z,28.29
2019-06-07T15:49:25.089Z,28.25
2019-06-07T15:51:51.934Z,28.20
2019-06-07T15:54:18.677Z,28.16
2019-06-07T15:56:45.703Z,28.13
2019-06-07T15:59:12.549Z,28.12
2019-06-07T16:01:39.713Z,28.12
2019-06-07T16:04:06.646Z,28.07
2019-06-07T16:06:34.278Z,28.00
2019-06-07T16:09:01.389Z,28.00
2019-06-07T16:11:28.470Z,27.97
2019-06-07T16:13:55.257Z,27.98
2019-06-07T16:16:22.307Z,27.92
2019-06-07T16:18:49.199Z,27.86
2019-06-07T16:21:16.102Z,27.84
2019-06-07T16:23:44.091Z,27.83
2019-06-07T16:26:10.975Z,27.81
2019-06-07T16:28:38.299Z,27.80
2019-06-07T16:31:05.454Z,27.57
2019-06-07T16:33:32.329Z,27.75
2019-06-07T16:35:59.290Z,27.75
2019-06-07T16:38:26.068Z,27.69
2019-06-07T16:40:52.751Z,27.64
2019-06-07T16:43:21.542Z,27.60
2019-06-07T16:45:49.039Z,27.57
2019-06-07T16:48:16.036Z,27.53
2019-06-07T16:50:43.054Z,27.49
2019-06-07T16:53:11.106Z,27.47
2019-06-07T16:55:38.708Z,27.44
2019-06-07T16:58:05.639Z,27.41
2019-06-07T17:00:32.339Z,27.36
2019-06-07T17:02:59.045Z,27.33
2019-06-07T17:05:25.848Z,27.30
2019-06-07T17:07:52.689Z,27.28
2019-06-07T17:10:20.505Z,27.24
2019-06-07T17:12:48.806Z,27.18
2019-06-07T17:15:17.446Z,26.99
2019-06-07T17:17:45.130Z,27.09
2019-06-07T17:20:15.549Z,27.05
2019-06-07T17:22:43.901Z,27.03
2019-06-07T17:25:13.296Z,26.99
2019-06-07T17:27:40.068Z,26.94
2019-06-07T17:30:07.784Z,26.91
2019-06-07T17:32:47.600Z,26.86
2019-06-07T17:35:04.072Z,26.82
2019-06-07T17:37:30.834Z,26.80
2019-06-07T17:39:57.779Z,26.75
2019-06-07T17:42:24.475Z,26.73
2019-06-07T17:44:51.560Z,26.68
2019-06-07T17:47:18.489Z,26.61
2019-06-07T17:49:45.806Z,26.58
2019-06-07T17:52:12.908Z,26.54
2019-06-07T17:54:39.727Z,26.51
2019-06-07T17:57:06.432Z,26.46
2019-06-07T17:59:33.123Z,26.44
2019-06-07T18:02:14.386Z,26.40
2019-06-07T18:04:29.749Z,26.36
2019-06-07T18:06:56.662Z,26.29
2019-06-07T18:09:23.789Z,26.25
2019-06-07T18:11:50.585Z,26.23
2019-06-07T18:14:17.359Z,26.17
2019-06-07T18:16:44.438Z,26.12
2019-06-07T18:19:11.275Z,26.08
2019-06-07T18:21:38.080Z,26.02
2019-06-07T18:24:04.899Z,25.95
2019-06-07T18:26:31.638Z,25.93
2019-06-07T18:28:59.350Z,25.89
2019-06-07T18:31:26.241Z,25.85
2019-06-07T18:33:53.048Z,25.80
2019-06-07T18:36:19.724Z,25.77
2019-06-07T18:38:46.941Z,25.75
2019-06-07T18:41:13.876Z,25.66
2019-06-07T18:43:40.648Z,25.61
2019-06-07T18:46:07.331Z,25.54
2019-06-07T18:48:34.108Z,25.46
2019-06-07T18:51:00.813Z,25.41
2019-06-07T18:53:27.513Z,25.31
2019-06-07T18:55:54.376Z,25.26
2019-06-07T18:58:21.232Z,25.18
2019-06-07T19:00:49.766Z,25.05
2019-06-07T19:03:16.855Z,24.91
2019-06-07T19:05:43.699Z,24.82
2019-06-07T19:08:10.516Z,24.65
2019-06-07T19:10:37.089Z,24.54
2019-06-07T19:13:03.919Z,24.46
2019-06-07T19:15:38.729Z,24.34
2019-06-07T19:18:05.594Z,24.25
2019-06-07T19:20:32.429Z,24.20
2019-06-07T19:23:00.505Z,24.15
2019-06-07T19:25:27.580Z,24.08
2019-06-07T19:27:54.964Z,24.02
2019-06-07T19:30:21.844Z,23.97
2019-06-07T19:32:49.762Z,23.87
2019-06-07T19:35:17.766Z,23.75
2019-06-07T19:37:44.568Z,23.64
2019-06-07T19:40:11.592Z,23.55
2019-06-07T19:42:39.541Z,23.46
2019-06-07T19:45:29.095Z,23.35
2019-06-07T19:47:43.690Z,23.27
2019-06-07T19:50:13.039Z,23.20
2019-06-07T19:52:39.817Z,23.10
2019-06-07T19:55:09.812Z,23.03
2019-06-07T19:57:41.784Z,22.97
2019-06-07T20:00:14.507Z,22.87
2019-06-07T20:02:42.337Z,22.80
2019-06-07T20:05:13.924Z,22.74
2019-06-07T20:07:40.860Z,22.67
2019-06-07T20:10:14.807Z,22.64
2019-06-07T20:12:41.767Z,22.56
2019-06-07T20:15:27.997Z,22.51
2019-06-07T20:17:44.532Z,22.45
2019-06-07T20:20:19.103Z,22.39
2019-06-07T20:22:48.028Z,22.34
2019-06-07T20:25:15.284Z,22.26
2019-06-07T20:27:42.251Z,22.23
2019-06-07T20:30:10.907Z,22.21
2019-06-07T20:32:37.816Z,22.18
2019-06-07T20:35:06.030Z,22.11
2019-06-07T20:37:35.026Z,22.04
2019-06-07T20:40:20.738Z,21.98
2019-06-07T20:42:46.986Z,21.95
2019-06-07T20:45:32.543Z,21.87
2019-06-07T20:47:49.668Z,21.82
2019-06-07T20:50:16.720Z,21.78
2019-06-07T20:52:44.587Z,21.77
2019-06-07T20:55:17.185Z,21.73
2019-06-07T20:57:44.936Z,21.75
2019-06-07T21:00:22.108Z,21.71
2019-06-07T21:02:51.509Z,21.67
2019-06-07T21:05:20.321Z,21.63
2019-06-07T21:07:49.370Z,21.59
2019-06-07T21:10:18.922Z,21.56
2019-06-07T21:12:45.772Z,21.55
2019-06-07T21:15:14.524Z,21.54
2019-06-07T21:17:41.908Z,21.51
2019-06-07T21:20:13.778Z,21.45
2019-06-07T21:22:38.533Z,21.46
2019-06-07T21:25:07.260Z,21.44
2019-06-07T21:27:35.248Z,21.45
2019-06-07T21:30:03.495Z,21.44
2019-06-07T21:32:31.589Z,21.50
2019-06-07T21:34:58.399Z,21.55
2019-06-07T21:37:25.301Z,21.54
2019-06-07T21:39:54.263Z,21.58
2019-06-07T21:42:22.207Z,21.57
2019-06-07T21:44:50.692Z,21.57
2019-06-07T21:47:17.622Z,21.60
2019-06-07T21:49:44.365Z,21.61
2019-06-07T21:52:11.250Z,21.53
2019-06-07T21:54:38.025Z,21.46
2019-06-07T21:57:04.839Z,21.34
2019-06-07T21:59:31.653Z,21.23
2019-06-07T22:01:58.612Z,21.09
2019-06-07T22:04:25.489Z,21.03
2019-06-07T22:06:52.524Z,20.93
2019-06-07T22:09:19.333Z,20.81
2019-06-07T22:11:46.116Z,20.74
2019-06-07T22:14:12.893Z,20.62
2019-06-07T22:16:39.716Z,20.52
2019-06-07T22:19:06.648Z,20.37
2019-06-07T22:21:33.440Z,20.30
2019-06-07T22:24:00.244Z,20.19
2019-06-07T22:26:27.030Z,20.17
2019-06-07T22:28:55.915Z,20.10
2019-06-07T22:31:22.703Z,20.11
2019-06-07T22:33:49.471Z,20.06
2019-06-07T22:36:16.242Z,20.01
2019-06-07T22:38:42.978Z,19.99
2019-06-07T22:41:09.794Z,19.97
2019-06-07T22:43:36.458Z,19.94
2019-06-07T22:46:03.400Z,19.97
2019-06-07T22:48:31.238Z,19.92
2019-06-07T22:51:00.091Z,19.81
2019-06-07T22:53:26.874Z,19.81
2019-06-07T22:56:00.471Z,19.80
2019-06-07T22:58:27.375Z,19.75
2019-06-07T23:00:54.152Z,19.75
2019-06-07T23:03:20.965Z,19.73
2019-06-07T23:05:47.754Z,19.70
2019-06-07T23:08:15.009Z,19.62
2019-06-07T23:10:41.884Z,19.63
2019-06-07T23:13:09.280Z,19.61
2019-06-07T23:15:36.105Z,19.57
2019-06-07T23:18:02.871Z,19.56
2019-06-07T23:20:29.657Z,19.49
2019-06-07T23:22:56.468Z,19.47
2019-06-07T23:25:24.696Z,19.43
2019-06-07T23:27:51.628Z,19.48
2019-06-07T23:30:21.706Z,19.43
2019-06-07T23:32:48.539Z,19.39
2019-06-07T23:35:17.089Z,19.36
2019-06-07T23:37:44.159Z,19.36
2019-06-07T23:40:11.259Z,19.29
2019-06-07T23:42:38.016Z,19.24
2019-06-07T23:45:04.851Z,19.18
2019-06-07T23:47:31.710Z,19.13
2019-06-07T23:49:58.398Z,19.09
2019-06-07T23:52:25.107Z,19.09
2019-06-07T23:54:51.884Z,19.07
2019-06-07T23:57:19.548Z,19.08
2019-06-07T23:59:47.263Z,18.96
